sensor_id;sensor_type;location;lat;lon;timestamp;pressure;altitude;pressure_sealevel;temperature;humidity
74065;BME280;62421;51.412;5.432;2023-03-15T00:01:01;101119.72;;;2.13;100.00
74065;BME280;62421;51.412;5.432;2023-03-15T00:03:28;101124.22;;;2.10;100.00
74065;BME280;62421;51.412;5.432;2023-03-15T00:05:53;101125.13;;;2.09;100.00
74065;BME280;62421;51.412;5.432;2023-03-15T00:08:18;101117.16;;;2.09;100.00
74065;BME280;62421;51.412;5.432;2023-03-15T00:10:46;101114.59;;;2.07;100.00
74065;BME280;62421;51.412;5.432;2023-03-15T00:13:13;101117.28;;;2.05;100.00
74065;BME280;62421;51.412;5.432;2023-03-15T00:15:49;101126.03;;;2.08;100.00
74065;BME280;62421;51.412;5.432;2023-03-15T00:18:17;101109.22;;;2.09;100.00
74065;BME280;62421;51.412;5.432;2023-03-15T00:20:43;101116.28;;;2.10;100.00
74065;BME280;62421;51.412;5.432;2023-03-15T00:23:08;101109.19;;;2.10;100.00
74065;BME280;62421;51.412;5.432;2023-03-15T00:25:34;101114.53;;;2.09;100.00
74065;BME280;62421;51.412;5.432;2023-03-15T00:27:59;101122.53;;;2.07;100.00
74065;BME280;62421;51.412;5.432;2023-03-15T00:30:24;101123.28;;;2.11;100.00
74065;BME280;62421;51.412;5.432;2023-03-15T00:32:53;101124.94;;;2.15;100.00
74065;BME280;62421;51.412;5.432;2023-03-15T00:35:19;101133.63;;;2.20;100.00
74065;BME280;62421;51.412;5.432;2023-03-15T00:37:45;101138.81;;;2.23;100.00
74065;BME280;62421;51.412;5.432;2023-03-15T00:40:12;101129.88;;;2.27;100.00
74065;BME280;62421;51.412;5.432;2023-03-15T00:42:38;101135.94;;;2.31;100.00
74065;BME280;62421;51.412;5.432;2023-03-15T00:45:05;101134.94;;;2.35;100.00
74065;BME280;62421;51.412;5.432;2023-03-15T00:47:30;101133.03;;;2.38;100.00
74065;BME280;62421;51.412;5.432;2023-03-15T00:49:56;101141.81;;;2.40;100.00
74065;BME280;62421;51.412;5.432;2023-03-15T00:52:21;101133.81;;;2.42;100.00
74065;BME280;62421;51.412;5.432;2023-03-15T00:54:54;101135.53;;;2.43;100.00
74065;BME280;62421;51.412;5.432;2023-03-15T00:57:19;101131.94;;;2.45;100.00
74065;BME280;62421;51.412;5.432;2023-03-15T00:59:45;101134.66;;;2.44;100.00
74065;BME280;62421;51.412;5.432;2023-03-15T01:02:11;101137.38;;;2.41;100.00
74065;BME280;62421;51.412;5.432;2023-03-15T01:04:37;101132.13;;;2.39;100.00
74065;BME280;62421;51.412;5.432;2023-03-15T01:07:03;101139.16;;;2.40;100.00
74065;BME280;62421;51.412;5.432;2023-03-15T01:09:28;101140.91;;;2.41;100.00
74065;BME280;62421;51.412;5.432;2023-03-15T01:11:56;101137.38;;;2.41;100.00
74065;BME280;62421;51.412;5.432;2023-03-15T01:14:21;101142.75;;;2.39;100.00
74065;BME280;62421;51.412;5.432;2023-03-15T01:16:46;101149.88;;;2.37;100.00
74065;BME280;62421;51.412;5.432;2023-03-15T01:19:12;101144.59;;;2.36;100.00
74065;BME280;62421;51.412;5.432;2023-03-15T01:21:38;101149.19;;;2.31;100.00
74065;BME280;62421;51.412;5.432;2023-03-15T01:24:03;101149.34;;;2.26;100.00
74065;BME280;62421;51.412;5.432;2023-03-15T01:26:29;101153.00;;;2.22;100.00
74065;BME280;62421;51.412;5.432;2023-03-15T01:28:54;101154.81;;;2.20;100.00
74065;BME280;62421;51.412;5.432;2023-03-15T01:31:26;101148.63;;;2.19;100.00
74065;BME280;62421;51.412;5.432;2023-03-15T01:33:53;101166.56;;;2.11;100.00
74065;BME280;62421;51.412;5.432;2023-03-15T01:36:18;101167.50;;;2.09;100.00
74065;BME280;62421;51.412;5.432;2023-03-15T01:38:44;101176.41;;;2.06;100.00
74065;BME280;62421;51.412;5.432;2023-03-15T01:41:11;101168.47;;;2.06;100.00
74065;BME280;62421;51.412;5.432;2023-03-15T01:43:37;101172.91;;;2.05;100.00
74065;BME280;62421;51.412;5.432;2023-03-15T01:46:22;101171.09;;;2.08;100.00
74065;BME280;62421;51.412;5.432;2023-03-15T01:48:59;101162.31;;;2.05;100.00
74065;BME280;62421;51.412;5.432;2023-03-15T01:51:39;101176.41;;;2.06;100.00
74065;BME280;62421;51.412;5.432;2023-03-15T01:54:18;101172.00;;;2.07;100.00
74065;BME280;62421;51.412;5.432;2023-03-15T01:56:55;101172.00;;;2.07;100.00
74065;BME280;62421;51.412;5.432;2023-03-15T01:59:50;101169.41;;;2.05;100.00
74065;BME280;62421;51.412;5.432;2023-03-15T02:02:15;101173.84;;;2.04;100.00
74065;BME280;62421;51.412;5.432;2023-03-15T02:04:44;101187.09;;;2.04;100.00
74065;BME280;62421;51.412;5.432;2023-03-15T02:07:13;101177.34;;;2.05;100.00
74065;BME280;62421;51.412;5.432;2023-03-15T02:09:49;101182.69;;;2.03;100.00
74065;BME280;62421;51.412;5.432;2023-03-15T02:12:18;101193.25;;;2.05;100.00
74065;BME280;62421;51.412;5.432;2023-03-15T02:14:44;101187.94;;;2.05;100.00
74065;BME280;62421;51.412;5.432;2023-03-15T02:17:10;101198.50;;;2.07;100.00
74065;BME280;62421;51.412;5.432;2023-03-15T02:19:51;101191.44;;;2.05;100.00
74065;BME280;62421;51.412;5.432;2023-03-15T02:22:49;101206.53;;;2.03;100.00
74065;BME280;62421;51.412;5.432;2023-03-15T02:25:47;101221.69;;;1.98;100.00
74065;BME280;62421;51.412;5.432;2023-03-15T02:28:17;101219.09;;;1.95;100.00
74065;BME280;62421;51.412;5.432;2023-03-15T02:30:45;101208.69;;;1.89;100.00
74065;BME280;62421;51.412;5.432;2023-03-15T02:35:42;101213.41;;;1.78;100.00
74065;BME280;62421;51.412;5.432;2023-03-15T02:38:07;101210.91;;;1.73;100.00
74065;BME280;62421;51.412;5.432;2023-03-15T02:40:33;101209.38;;;1.64;100.00
74065;BME280;62421;51.412;5.432;2023-03-15T02:43:05;101201.44;;;1.64;100.00
74065;BME280;62421;51.412;5.432;2023-03-15T02:45:32;101216.66;;;1.56;100.00
74065;BME280;62421;51.412;5.432;2023-03-15T02:47:59;101215.81;;;1.54;100.00
74065;BME280;62421;51.412;5.432;2023-03-15T02:50:25;101226.41;;;1.54;100.00
74065;BME280;62421;51.412;5.432;2023-03-15T02:52:51;101229.97;;;1.53;100.00
74065;BME280;62421;51.412;5.432;2023-03-15T02:55:17;101230.97;;;1.49;100.00
74065;BME280;62421;51.412;5.432;2023-03-15T02:57:43;101232.75;;;1.49;100.00
74065;BME280;62421;51.412;5.432;2023-03-15T03:00:09;101236.25;;;1.49;100.00
74065;BME280;62421;51.412;5.432;2023-03-15T03:02:44;101231.88;;;1.48;100.00
74065;BME280;62421;51.412;5.432;2023-03-15T03:05:11;101245.09;;;1.48;100.00
74065;BME280;62421;51.412;5.432;2023-03-15T03:07:37;101239.03;;;1.45;100.00
74065;BME280;62421;51.412;5.432;2023-03-15T03:10:05;101248.78;;;1.42;100.00
74065;BME280;62421;51.412;5.432;2023-03-15T03:12:31;101246.19;;;1.41;100.00
74065;BME280;62421;51.412;5.432;2023-03-15T03:14:57;101255.03;;;1.40;100.00
74065;BME280;62421;51.412;5.432;2023-03-15T03:17:23;101267.38;;;1.39;100.00
74065;BME280;62421;51.412;5.432;2023-03-15T03:19:48;101263.00;;;1.38;100.00
74065;BME280;62421;51.412;5.432;2023-03-15T03:22:15;101278.03;;;1.38;100.00
74065;BME280;62421;51.412;5.432;2023-03-15T03:24:41;101271.84;;;1.37;100.00
74065;BME280;62421;51.412;5.432;2023-03-15T03:27:13;101285.13;;;1.36;100.00
74065;BME280;62421;51.412;5.432;2023-03-15T03:29:41;101279.84;;;1.36;100.00
74065;BME280;62421;51.412;5.432;2023-03-15T03:32:07;101281.59;;;1.35;100.00
74065;BME280;62421;51.412;5.432;2023-03-15T03:34:33;101279.13;;;1.29;100.00
74065;BME280;62421;51.412;5.432;2023-03-15T03:36:59;101281.00;;;1.22;100.00
74065;BME280;62421;51.412;5.432;2023-03-15T03:39:24;101293.53;;;1.16;100.00
74065;BME280;62421;51.412;5.432;2023-03-15T03:41:50;101304.25;;;1.10;100.00
74065;BME280;62421;51.412;5.432;2023-03-15T03:44:15;101300.88;;;1.03;100.00
74065;BME280;62421;51.412;5.432;2023-03-15T03:46:41;101306.38;;;0.95;100.00
74065;BME280;62421;51.412;5.432;2023-03-15T03:49:06;101296.00;;;0.86;100.00
74065;BME280;62421;51.412;5.432;2023-03-15T03:51:31;101294.41;;;0.77;100.00
74065;BME280;62421;51.412;5.432;2023-03-15T03:53:59;101296.41;;;0.68;100.00
74065;BME280;62421;51.412;5.432;2023-03-15T03:56:24;101307.06;;;0.63;100.00
74065;BME280;62421;51.412;5.432;2023-03-15T03:58:50;101308.09;;;0.56;100.00
74065;BME280;62421;51.412;5.432;2023-03-15T04:01:15;101310.00;;;0.49;100.00
74065;BME280;62421;51.412;5.432;2023-03-15T04:03:41;101313.59;;;0.45;100.00
74065;BME280;62421;51.412;5.432;2023-03-15T04:06:06;101321.63;;;0.40;100.00
74065;BME280;62421;51.412;5.432;2023-03-15T04:08:32;101326.97;;;0.37;100.00
74065;BME280;62421;51.412;5.432;2023-03-15T04:10:57;101334.97;;;0.34;100.00
74065;BME280;62421;51.412;5.432;2023-03-15T04:13:23;101334.16;;;0.32;100.00
74065;BME280;62421;51.412;5.432;2023-03-15T04:15:50;101339.50;;;0.28;100.00
74065;BME280;62421;51.412;5.432;2023-03-15T04:18:16;101341.34;;;0.24;100.00
74065;BME280;62421;51.412;5.432;2023-03-15T04:20:42;101344.03;;;0.21;100.00
74065;BME280;62421;51.412;5.432;2023-03-15T04:23:16;101357.31;;;0.18;100.00
74065;BME280;62421;51.412;5.432;2023-03-15T04:25:47;101355.63;;;0.14;100.00
74065;BME280;62421;51.412;5.432;2023-03-15T04:28:12;101359.13;;;0.13;100.00
74065;BME280;62421;51.412;5.432;2023-03-15T04:30:38;101360.13;;;0.09;100.00
74065;BME280;62421;51.412;5.432;2023-03-15T04:33:04;101356.66;;;0.07;100.00
74065;BME280;62421;51.412;5.432;2023-03-15T04:35:34;101364.63;;;0.02;100.00
74065;BME280;62421;51.412;5.432;2023-03-15T04:38:00;101360.28;;;-0.01;100.00
74065;BME280;62421;51.412;5.432;2023-03-15T04:40:26;101371.78;;;-0.03;100.00
74065;BME280;62421;51.412;5.432;2023-03-15T04:42:53;101375.34;;;-0.06;100.00
74065;BME280;62421;51.412;5.432;2023-03-15T04:45:25;101378.00;;;-0.09;100.00
74065;BME280;62421;51.412;5.432;2023-03-15T04:47:52;101371.03;;;-0.11;100.00
74065;BME280;62421;51.412;5.432;2023-03-15T04:50:18;101389.56;;;-0.14;100.00
74065;BME280;62421;51.412;5.432;2023-03-15T04:52:43;101380.81;;;-0.16;100.00
74065;BME280;62421;51.412;5.432;2023-03-15T04:55:09;101391.38;;;-0.18;100.00
74065;BME280;62421;51.412;5.432;2023-03-15T04:57:35;101384.38;;;-0.21;100.00
74065;BME280;62421;51.412;5.432;2023-03-15T05:00:00;101384.41;;;-0.22;100.00
74065;BME280;62421;51.412;5.432;2023-03-15T05:02:28;101387.09;;;-0.24;100.00
74065;BME280;62421;51.412;5.432;2023-03-15T05:04:53;101390.63;;;-0.26;100.00
74065;BME280;62421;51.412;5.432;2023-03-15T05:07:18;101395.03;;;-0.27;100.00
74065;BME280;62421;51.412;5.432;2023-03-15T05:09:44;101394.22;;;-0.30;100.00
74065;BME280;62421;51.412;5.432;2023-03-15T05:12:11;101396.00;;;-0.31;100.00
74065;BME280;62421;51.412;5.432;2023-03-15T05:14:37;101408.34;;;-0.33;100.00
74065;BME280;62421;51.412;5.432;2023-03-15T05:17:02;101409.28;;;-0.37;100.00
74065;BME280;62421;51.412;5.432;2023-03-15T05:19:28;101416.41;;;-0.40;100.00
74065;BME280;62421;51.412;5.432;2023-03-15T05:21:53;101419.06;;;-0.44;100.00
74065;BME280;62421;51.412;5.432;2023-03-15T05:24:20;101426.13;;;-0.46;100.00
74065;BME280;62421;51.412;5.432;2023-03-15T05:26:45;101427.06;;;-0.50;100.00
74065;BME280;62421;51.412;5.432;2023-03-15T05:29:12;101435.03;;;-0.51;100.00
74065;BME280;62421;51.412;5.432;2023-03-15T05:31:38;101431.56;;;-0.55;100.00
74065;BME280;62421;51.412;5.432;2023-03-15T05:34:03;101435.09;;;-0.56;100.00
74065;BME280;62421;51.412;5.432;2023-03-15T05:36:30;101430.72;;;-0.58;100.00
74065;BME280;62421;51.412;5.432;2023-03-15T05:38:55;101444.81;;;-0.59;100.00
74065;BME280;62421;51.412;5.432;2023-03-15T05:41:21;101435.19;;;-0.62;100.00
74065;BME280;62421;51.412;5.432;2023-03-15T05:43:46;101443.97;;;-0.65;100.00
74065;BME280;62421;51.412;5.432;2023-03-15T05:46:12;101442.31;;;-0.70;100.00
74065;BME280;62421;51.412;5.432;2023-03-15T05:48:37;101440.59;;;-0.73;100.00
74065;BME280;62421;51.412;5.432;2023-03-15T05:51:02;101446.75;;;-0.74;100.00
74065;BME280;62421;51.412;5.432;2023-03-15T05:53:28;101443.28;;;-0.76;100.00
74065;BME280;62421;51.412;5.432;2023-03-15T05:55:54;101450.34;;;-0.78;100.00
74065;BME280;62421;51.412;5.432;2023-03-15T05:58:19;101451.25;;;-0.79;100.00
74065;BME280;62421;51.412;5.432;2023-03-15T06:00:44;101456.53;;;-0.80;100.00
74065;BME280;62421;51.412;5.432;2023-03-15T06:03:10;101468.84;;;-0.83;100.00
74065;BME280;62421;51.412;5.432;2023-03-15T06:05:35;101477.69;;;-0.84;100.00
74065;BME280;62421;51.412;5.432;2023-03-15T06:08:00;101470.63;;;-0.83;100.00
74065;BME280;62421;51.412;5.432;2023-03-15T06:10:26;101473.28;;;-0.85;100.00
74065;BME280;62421;51.412;5.432;2023-03-15T06:12:51;101475.91;;;-0.86;100.00
74065;BME280;62421;51.412;5.432;2023-03-15T06:15:18;101481.19;;;-0.86;100.00
74065;BME280;62421;51.412;5.432;2023-03-15T06:17:43;101479.41;;;-0.84;100.00
74065;BME280;62421;51.412;5.432;2023-03-15T06:20:11;101483.81;;;-0.85;100.00
74065;BME280;62421;51.412;5.432;2023-03-15T06:22:37;101477.69;;;-0.84;100.00
74065;BME280;62421;51.412;5.432;2023-03-15T06:25:03;101490.81;;;-0.82;100.00
74065;BME280;62421;51.412;5.432;2023-03-15T06:27:28;101497.84;;;-0.81;100.00
74065;BME280;62421;51.412;5.432;2023-03-15T06:29:53;101503.13;;;-0.79;100.00
74065;BME280;62421;51.412;5.432;2023-03-15T06:32:20;101503.94;;;-0.76;100.00
74065;BME280;62421;51.412;5.432;2023-03-15T06:34:45;101515.28;;;-0.69;100.00
74065;BME280;62421;51.412;5.432;2023-03-15T06:37:11;101521.31;;;-0.59;100.00
74065;BME280;62421;51.412;5.432;2023-03-15T06:39:38;101529.88;;;-0.40;100.00
74065;BME280;62421;51.412;5.432;2023-03-15T06:42:04;101536.59;;;-0.19;100.00
74065;BME280;62421;51.412;5.432;2023-03-15T06:44:33;101542.44;;;0.03;100.00
74065;BME280;62421;51.412;5.432;2023-03-15T06:46:58;101548.25;;;0.23;100.00
74065;BME280;62421;51.412;5.432;2023-03-15T06:49:23;101550.66;;;0.38;100.00
74065;BME280;62421;51.412;5.432;2023-03-15T06:51:49;101553.00;;;0.55;100.00
74065;BME280;62421;51.412;5.432;2023-03-15T06:54:14;101562.53;;;0.67;100.00
74065;BME280;62421;51.412;5.432;2023-03-15T06:56:40;101558.78;;;0.77;100.00
74065;BME280;62421;51.412;5.432;2023-03-15T06:59:05;101562.16;;;0.86;100.00
74065;BME280;62421;51.412;5.432;2023-03-15T07:01:31;101563.81;;;0.93;100.00
74065;BME280;62421;51.412;5.432;2023-03-15T07:03:57;101564.50;;;1.02;100.00
74065;BME280;62421;51.412;5.432;2023-03-15T07:06:22;101553.78;;;1.10;100.00
74065;BME280;62421;51.412;5.432;2023-03-15T07:08:48;101565.03;;;1.21;100.00
74065;BME280;62421;51.412;5.432;2023-03-15T07:11:13;101567.56;;;1.28;100.00
74065;BME280;62421;51.412;5.432;2023-03-15T07:13:38;101573.56;;;1.36;100.00
74065;BME280;62421;51.412;5.432;2023-03-15T07:16:04;101579.59;;;1.42;100.00
74065;BME280;62421;51.412;5.432;2023-03-15T07:18:32;101585.66;;;1.48;100.00
74065;BME280;62421;51.412;5.432;2023-03-15T07:21:00;101588.28;;;1.51;100.00
74065;BME280;62421;51.412;5.432;2023-03-15T07:23:26;101596.16;;;1.52;100.00
74065;BME280;62421;51.412;5.432;2023-03-15T07:25:53;101595.31;;;1.50;100.00
74065;BME280;62421;51.412;5.432;2023-03-15T07:28:19;101599.84;;;1.45;100.00
74065;BME280;62421;51.412;5.432;2023-03-15T07:31:11;101603.47;;;1.39;100.00
74065;BME280;62421;51.412;5.432;2023-03-15T07:33:37;101612.31;;;1.40;100.00
74065;BME280;62421;51.412;5.432;2023-03-15T07:36:04;101610.44;;;1.43;100.00
74065;BME280;62421;51.412;5.432;2023-03-15T07:38:32;101618.28;;;1.48;100.00
74065;BME280;62421;51.412;5.432;2023-03-15T07:41:00;101623.53;;;1.51;100.00
74065;BME280;62421;51.412;5.432;2023-03-15T07:43:26;101625.22;;;1.55;100.00
74065;BME280;62421;51.412;5.432;2023-03-15T07:45:51;101621.53;;;1.62;100.00
74065;BME280;62421;51.412;5.432;2023-03-15T07:48:17;101634.66;;;1.69;100.00
74065;BME280;62421;51.412;5.432;2023-03-15T07:50:42;101631.06;;;1.71;100.00
74065;BME280;62421;51.412;5.432;2023-03-15T07:53:08;101641.66;;;1.71;100.00
74065;BME280;62421;51.412;5.432;2023-03-15T07:55:34;101648.72;;;1.72;100.00
74065;BME280;62421;51.412;5.432;2023-03-15T07:58:00;101652.31;;;1.68;100.00
74065;BME280;62421;51.412;5.432;2023-03-15T08:00:25;101656.72;;;1.68;100.00
74065;BME280;62421;51.412;5.432;2023-03-15T08:02:51;101663.81;;;1.66;100.00
74065;BME280;62421;51.412;5.432;2023-03-15T08:05:16;101665.59;;;1.65;100.00
74065;BME280;62421;51.412;5.432;2023-03-15T08:07:44;101665.66;;;1.63;100.00
74065;BME280;62421;51.412;5.432;2023-03-15T08:10:11;101676.28;;;1.60;100.00
74065;BME280;62421;51.412;5.432;2023-03-15T08:12:36;101679.78;;;1.62;100.00
74065;BME280;62421;51.412;5.432;2023-03-15T08:15:03;101685.09;;;1.61;100.00
74065;BME280;62421;51.412;5.432;2023-03-15T08:17:29;101687.84;;;1.56;100.00
74065;BME280;62421;51.412;5.432;2023-03-15T08:19:54;101693.22;;;1.52;100.00
74065;BME280;62421;51.412;5.432;2023-03-15T08:22:19;101695.03;;;1.50;100.00
74065;BME280;62421;51.412;5.432;2023-03-15T08:24:45;101698.59;;;1.49;100.00
74065;BME280;62421;51.412;5.432;2023-03-15T08:27:10;101693.31;;;1.47;100.00
74065;BME280;62421;51.412;5.432;2023-03-15T08:29:35;101702.09;;;1.49;100.00
74065;BME280;62421;51.412;5.432;2023-03-15T08:32:01;101704.72;;;1.51;100.00
74065;BME280;62421;51.412;5.432;2023-03-15T08:34:27;101705.59;;;1.53;100.00
74065;BME280;62421;51.412;5.432;2023-03-15T08:36:52;101694.91;;;1.56;100.00
74065;BME280;62421;51.412;5.432;2023-03-15T08:39:18;101708.94;;;1.61;100.00
74065;BME280;62421;51.412;5.432;2023-03-15T08:41:43;101708.81;;;1.67;100.00
74065;BME280;62421;51.412;5.432;2023-03-15T08:44:09;101703.47;;;1.70;100.00
74065;BME280;62421;51.412;5.432;2023-03-15T08:46:35;101707.75;;;1.76;100.00
74065;BME280;62421;51.412;5.432;2023-03-15T08:49:03;101714.69;;;1.83;100.00
74065;BME280;62421;51.412;5.432;2023-03-15T08:51:29;101715.50;;;1.87;100.00
74065;BME280;62421;51.412;5.432;2023-03-15T08:53:55;101718.97;;;1.89;100.00
74065;BME280;62421;51.412;5.432;2023-03-15T08:56:21;101718.03;;;1.93;100.00
74065;BME280;62421;51.412;5.432;2023-03-15T08:58:46;101726.78;;;1.96;100.00
74065;BME280;62421;51.412;5.432;2023-03-15T09:01:13;101725.75;;;2.03;100.00
74065;BME280;62421;51.412;5.432;2023-03-15T09:03:39;101722.97;;;2.11;100.00
74065;BME280;62421;51.412;5.432;2023-03-15T09:06:07;101730.81;;;2.16;100.00
74065;BME280;62421;51.412;5.432;2023-03-15T09:08:33;101730.72;;;2.20;100.00
74065;BME280;62421;51.412;5.432;2023-03-15T09:10:58;101737.69;;;2.24;100.00
74065;BME280;62421;51.412;5.432;2023-03-15T09:13:25;101741.06;;;2.33;100.00
74065;BME280;62421;51.412;5.432;2023-03-15T09:15:52;101740.75;;;2.45;100.00
74065;BME280;62421;51.412;5.432;2023-03-15T09:18:18;101741.50;;;2.52;100.00
74065;BME280;62421;51.412;5.432;2023-03-15T09:20:43;101740.53;;;2.56;100.00
74065;BME280;62421;51.412;5.432;2023-03-15T09:23:09;101737.75;;;2.62;100.00
74065;BME280;62421;51.412;5.432;2023-03-15T09:25:34;101733.88;;;2.75;100.00
74065;BME280;62421;51.412;5.432;2023-03-15T09:28:05;101740.63;;;2.90;100.00
74065;BME280;62421;51.412;5.432;2023-03-15T09:30:31;101743.81;;;3.04;100.00
74065;BME280;62421;51.412;5.432;2023-03-15T09:32:56;101746.25;;;3.14;100.00
74065;BME280;62421;51.412;5.432;2023-03-15T09:35:22;101747.72;;;3.25;100.00
74065;BME280;62421;51.412;5.432;2023-03-15T09:37:49;101754.34;;;3.43;100.00
74065;BME280;62421;51.412;5.432;2023-03-15T09:40:21;101743.19;;;3.63;100.00
74065;BME280;62421;51.412;5.432;2023-03-15T09:45:34;101739.31;;;4.08;100.00
74065;BME280;62421;51.412;5.432;2023-03-15T09:48:09;101742.09;;;4.35;100.00
74065;BME280;62421;51.412;5.432;2023-03-15T09:50:40;101739.53;;;4.60;97.63
74065;BME280;62421;51.412;5.432;2023-03-15T09:55:44;101744.81;;;4.89;85.23
74065;BME280;62421;51.412;5.432;2023-03-15T09:58:23;101745.25;;;5.04;90.58
74065;BME280;62421;51.412;5.432;2023-03-15T10:00:58;101747.34;;;5.21;91.01
74065;BME280;62421;51.412;5.432;2023-03-15T10:03:53;101747.72;;;5.10;88.28
74065;BME280;62421;51.412;5.432;2023-03-15T10:06:25;101744.69;;;4.92;87.81
74065;BME280;62421;51.412;5.432;2023-03-15T10:08:55;101744.09;;;4.84;90.75
74065;BME280;62421;51.412;5.432;2023-03-15T10:14:31;101734.00;;;4.67;90.30
74065;BME280;62421;51.412;5.432;2023-03-15T10:17:12;101746.50;;;4.64;90.34
74065;BME280;62421;51.412;5.432;2023-03-15T10:19:50;101741.97;;;4.67;89.25
74065;BME280;62421;51.412;5.432;2023-03-15T10:22:27;101733.88;;;4.70;91.60
74065;BME280;62421;51.412;5.432;2023-03-15T10:25:27;101734.56;;;4.77;89.08
74065;BME280;62421;51.412;5.432;2023-03-15T10:28:13;101748.19;;;4.95;91.57
74065;BME280;62421;51.412;5.432;2023-03-15T10:30:47;101741.22;;;5.19;89.13
74065;BME280;62421;51.412;5.432;2023-03-15T10:35:46;101738.03;;;5.59;86.78
74065;BME280;62421;51.412;5.432;2023-03-15T10:38:22;101734.41;;;5.62;86.58
74065;BME280;62421;51.412;5.432;2023-03-15T10:40:51;101738.97;;;5.58;86.26
74065;BME280;62421;51.412;5.432;2023-03-15T10:46:04;101759.88;;;5.44;87.57
74065;BME280;62421;51.412;5.432;2023-03-15T10:48:33;101750.94;;;5.46;86.89
74065;BME280;62421;51.412;5.432;2023-03-15T10:54:07;101754.31;;;5.77;82.60
74065;BME280;62421;51.412;5.432;2023-03-15T10:56:45;101767.72;;;6.00;82.24
74065;BME280;62421;51.412;5.432;2023-03-15T10:59:23;101751.72;;;6.24;80.25
74065;BME280;62421;51.412;5.432;2023-03-15T11:01:51;101765.06;;;6.47;75.19
74065;BME280;62421;51.412;5.432;2023-03-15T11:04:25;101776.13;;;6.60;77.08
74065;BME280;62421;51.412;5.432;2023-03-15T11:09:20;101775.56;;;6.97;74.38
74065;BME280;62421;51.412;5.432;2023-03-15T11:12:02;101774.69;;;7.19;76.16
74065;BME280;62421;51.412;5.432;2023-03-15T11:14:40;101779.59;;;7.30;75.33
74065;BME280;62421;51.412;5.432;2023-03-15T11:17:14;101788.22;;;7.36;73.53
74065;BME280;62421;51.412;5.432;2023-03-15T11:19:48;101780.16;;;7.38;73.08
74065;BME280;62421;51.412;5.432;2023-03-15T11:22:15;101785.06;;;7.49;72.30
74065;BME280;62421;51.412;5.432;2023-03-15T11:24:41;101805.03;;;7.61;72.63
74065;BME280;62421;51.412;5.432;2023-03-15T11:27:16;101798.41;;;7.69;73.92
74065;BME280;62421;51.412;5.432;2023-03-15T11:29:51;101811.31;;;7.80;71.67
74065;BME280;62421;51.412;5.432;2023-03-15T11:32:26;101803.78;;;7.90;69.47
74065;BME280;62421;51.412;5.432;2023-03-15T11:34:57;101796.22;;;7.99;67.54
74065;BME280;62421;51.412;5.432;2023-03-15T11:37:45;101795.84;;;8.09;69.99
74065;BME280;62421;51.412;5.432;2023-03-15T11:42:48;101789.84;;;8.02;66.37
74065;BME280;62421;51.412;5.432;2023-03-15T11:45:22;101789.00;;;8.02;65.76
74065;BME280;62421;51.412;5.432;2023-03-15T11:47:57;101782.78;;;8.01;63.90
74065;BME280;62421;51.412;5.432;2023-03-15T11:50:25;101785.41;;;8.03;64.77
74065;BME280;62421;51.412;5.432;2023-03-15T11:52:51;101788.13;;;8.01;65.35
74065;BME280;62421;51.412;5.432;2023-03-15T11:55:23;101794.59;;;7.95;64.66
74065;BME280;62421;51.412;5.432;2023-03-15T11:57:49;101782.50;;;7.87;65.06
74065;BME280;62421;51.412;5.432;2023-03-15T12:02:59;101787.41;;;7.77;64.60
74065;BME280;62421;51.412;5.432;2023-03-15T12:08:20;101771.28;;;7.58;65.41
74065;BME280;62421;51.412;5.432;2023-03-15T12:10:47;101772.25;;;7.35;64.54
74065;BME280;62421;51.412;5.432;2023-03-15T12:13:26;101769.75;;;7.10;68.20
74065;BME280;62421;51.412;5.432;2023-03-15T12:15:52;101760.22;;;7.03;66.54
74065;BME280;62421;51.412;5.432;2023-03-15T12:18:41;101767.13;;;7.08;67.90
74065;BME280;62421;51.412;5.432;2023-03-15T12:21:12;101758.16;;;7.09;64.13
74065;BME280;62421;51.412;5.432;2023-03-15T12:23:54;101765.81;;;6.96;65.02
74065;BME280;62421;51.412;5.432;2023-03-15T12:26:41;101773.19;;;6.90;66.72
74065;BME280;62421;51.412;5.432;2023-03-15T12:29:34;101758.75;;;6.95;67.17
74065;BME280;62421;51.412;5.432;2023-03-15T12:37:23;101766.44;;;7.25;61.27
74065;BME280;62421;51.412;5.432;2023-03-15T12:50:36;101769.22;;;7.65;65.04
74065;BME280;62421;51.412;5.432;2023-03-15T12:53:08;101765.94;;;7.78;60.99
74065;BME280;62421;51.412;5.432;2023-03-15T12:55:37;101771.00;;;7.85;60.48
74065;BME280;62421;51.412;5.432;2023-03-15T12:58:09;101769.09;;;7.88;60.48
74065;BME280;62421;51.412;5.432;2023-03-15T13:00:36;101770.53;;;7.95;59.71
74065;BME280;62421;51.412;5.432;2023-03-15T13:03:12;101764.38;;;7.93;59.06
74065;BME280;62421;51.412;5.432;2023-03-15T13:08:25;101766.47;;;7.87;60.99
74065;BME280;62421;51.412;5.432;2023-03-15T13:16:45;101766.84;;;7.57;58.08
74065;BME280;62421;51.412;5.432;2023-03-15T13:19:26;101771.69;;;7.49;63.26
74065;BME280;62421;51.412;5.432;2023-03-15T13:35:44;101772.28;;;7.55;60.15
74065;BME280;62421;51.412;5.432;2023-03-15T13:40:54;101760.25;;;7.66;57.94
74065;BME280;62421;51.412;5.432;2023-03-15T13:43:28;101754.56;;;7.73;57.44
74065;BME280;62421;51.412;5.432;2023-03-15T13:45:56;101762.88;;;7.88;60.97
74065;BME280;62421;51.412;5.432;2023-03-15T13:48:22;101753.38;;;8.01;59.28
74065;BME280;62421;51.412;5.432;2023-03-15T13:50:51;101766.47;;;8.07;58.57
74065;BME280;62421;51.412;5.432;2023-03-15T13:53:24;101759.81;;;8.16;59.57
74065;BME280;62421;51.412;5.432;2023-03-15T13:55:52;101761.50;;;8.18;53.63
74065;BME280;62421;51.412;5.432;2023-03-15T13:58:20;101758.38;;;8.09;55.05
74065;BME280;62421;51.412;5.432;2023-03-15T14:00:47;101766.47;;;8.07;57.58
74065;BME280;62421;51.412;5.432;2023-03-15T14:03:19;101762.03;;;8.06;57.38
74065;BME280;62421;51.412;5.432;2023-03-15T14:05:51;101758.06;;;7.96;52.11
74065;BME280;62421;51.412;5.432;2023-03-15T14:08:21;101761.81;;;7.92;55.74